Seagraves, Texas
Current Conditions -  °F | °C
As of 4:55 AM on Sunday 23 Nov 2014 (Local Time) from KGNC Reporting Station
Clear Clear  
Wind Chill: 52°   Ceiling: Unl
Heat Index: 52°   Visibility: 10mi
Dew Point: 23°   Wind: 16mph
Humidity: 33%   Direction: 280°W
Pressure: 29.65"   Gusts: 22mph
Location:  32.94°N, 102.56°W
Report Text: KGNC 231055Z AUTO 28014G19KT 10SM CLR 11/M05 A2965 RMK AO2 T01091048
Loading
Personal Weather Stations






























Interactive Weather Map New forecast layout! Learn more

10-Day Weather Forecast

Advertisements
Track Severe Weather on mobile